createdAt,value
2019-05-11T00:02:06.851Z,15.57
2019-05-11T00:04:36.600Z,14.53
2019-05-11T00:07:05.395Z,14.30
2019-05-11T00:09:34.106Z,14.40
2019-05-11T00:12:02.924Z,13.50
2019-05-11T00:14:31.728Z,14.53
2019-05-11T00:17:00.544Z,13.10
2019-05-11T00:19:29.212Z,13.50
2019-05-11T00:21:58.094Z,13.47
2019-05-11T00:24:29.432Z,12.97
2019-05-11T00:26:57.298Z,12.50
2019-05-11T00:29:26.289Z,13.20
2019-05-11T00:31:55.055Z,13.23
2019-05-11T00:34:23.891Z,12.97
2019-05-11T00:36:52.762Z,13.97
2019-05-11T00:39:21.598Z,12.90
2019-05-11T00:41:50.425Z,13.10
2019-05-11T00:44:19.215Z,12.87
2019-05-11T00:46:47.966Z,12.70
2019-05-11T00:49:16.720Z,11.83
2019-05-11T00:51:45.488Z,12.57
2019-05-11T00:54:14.227Z,11.90
2019-05-11T00:56:42.977Z,12.57
2019-05-11T00:59:21.297Z,12.50
2019-05-11T01:01:42.317Z,13.00
2019-05-11T01:04:11.095Z,12.33
2019-05-11T01:06:40.814Z,12.93
2019-05-11T01:09:09.642Z,13.23
2019-05-11T01:11:38.394Z,12.77
2019-05-11T01:14:07.203Z,13.27
2019-05-11T01:16:35.942Z,13.20
2019-05-11T01:19:04.757Z,12.47
2019-05-11T01:21:33.616Z,12.73
2019-05-11T01:24:02.363Z,12.77
2019-05-11T01:26:31.112Z,13.33
2019-05-11T01:28:59.895Z,13.43
2019-05-11T01:31:28.729Z,12.37
2019-05-11T01:33:57.453Z,12.10
2019-05-11T01:36:26.318Z,13.07
2019-05-11T01:38:55.120Z,12.67
2019-05-11T01:41:23.836Z,13.07
2019-05-11T01:43:52.625Z,12.67
2019-05-11T01:46:21.364Z,12.10
2019-05-11T01:48:50.106Z,12.00
2019-05-11T01:51:18.914Z,13.20
2019-05-11T01:53:48.124Z,12.90
2019-05-11T01:56:16.986Z,12.87
2019-05-11T01:58:45.790Z,12.40
2019-05-11T02:01:14.658Z,12.70
2019-05-11T02:03:43.470Z,12.60
2019-05-11T02:06:12.328Z,12.30
2019-05-11T02:08:41.982Z,12.67
2019-05-11T02:11:16.037Z,12.87
2019-05-11T02:13:41.195Z,12.50
2019-05-11T02:16:09.959Z,12.13
2019-05-11T02:18:38.769Z,12.07
2019-05-11T02:21:07.513Z,12.73
2019-05-11T02:23:36.264Z,12.43
2019-05-11T02:26:05.099Z,13.13
2019-05-11T02:28:33.868Z,13.40
2019-05-11T02:31:02.641Z,13.63
2019-05-11T02:33:31.428Z,13.17
2019-05-11T02:36:00.163Z,12.97
2019-05-11T02:38:28.979Z,11.93
2019-05-11T02:40:57.745Z,12.80
2019-05-11T02:43:26.503Z,12.73
2019-05-11T02:45:55.265Z,13.20
2019-05-11T02:48:24.074Z,12.70
2019-05-11T02:50:54.195Z,13.10
2019-05-11T02:53:23.132Z,12.33
2019-05-11T02:55:52.822Z,13.07
2019-05-11T02:58:21.583Z,13.47
2019-05-11T03:00:50.340Z,13.27
2019-05-11T03:03:19.185Z,13.77
2019-05-11T03:05:47.954Z,13.53
2019-05-11T03:08:16.686Z,13.10
2019-05-11T03:10:45.550Z,13.83
2019-05-11T03:13:14.313Z,12.97
2019-05-11T03:15:43.103Z,12.30
2019-05-11T03:18:11.885Z,13.03
2019-05-11T03:20:40.639Z,12.67
2019-05-11T03:23:09.378Z,14.00
2019-05-11T03:25:38.201Z,14.10
2019-05-11T03:28:06.934Z,13.53
2019-05-11T03:30:35.680Z,14.37
2019-05-11T03:33:04.462Z,12.83
2019-05-11T03:35:33.251Z,14.40
2019-05-11T03:38:02.066Z,13.70
2019-05-11T03:40:30.938Z,12.60
2019-05-11T03:42:59.681Z,13.33
2019-05-11T03:45:28.433Z,13.67
2019-05-11T03:47:57.216Z,13.57
2019-05-11T03:50:25.962Z,12.80
2019-05-11T03:52:54.703Z,14.03
2019-05-11T03:55:23.554Z,14.17
2019-05-11T03:57:52.291Z,14.63
2019-05-11T04:00:21.206Z,14.83
2019-05-11T04:02:50.073Z,13.67
2019-05-11T04:05:18.825Z,13.37
2019-05-11T04:07:47.647Z,14.73
2019-05-11T04:10:16.520Z,13.17
2019-05-11T04:12:46.175Z,12.80
2019-05-11T04:15:15.324Z,14.50
2019-05-11T04:17:44.123Z,13.23
2019-05-11T04:20:13.155Z,13.80
2019-05-11T04:22:41.917Z,14.10
2019-05-11T04:25:10.975Z,13.97
2019-05-11T04:27:39.808Z,12.97
2019-05-11T04:30:08.910Z,13.03
2019-05-11T04:32:37.689Z,12.80
2019-05-11T04:35:06.544Z,13.67
2019-05-11T04:37:35.369Z,14.13
2019-05-11T04:40:05.055Z,13.80
2019-05-11T04:42:51.798Z,13.23
2019-05-11T04:45:07.444Z,13.17
2019-05-11T04:47:36.218Z,13.73
2019-05-11T04:50:08.357Z,14.80
2019-05-11T04:52:37.106Z,15.37
2019-05-11T04:55:25.154Z,16.03
2019-05-11T04:57:53.916Z,15.73
2019-05-11T05:00:22.986Z,15.47
2019-05-11T05:02:51.763Z,16.07
2019-05-11T05:05:20.511Z,16.20
2019-05-11T05:07:50.663Z,15.60
2019-05-11T05:10:22.128Z,15.47
2019-05-11T05:12:51.389Z,14.93
2019-05-11T05:15:21.555Z,14.93
2019-05-11T05:17:50.326Z,15.13
2019-05-11T05:20:19.109Z,16.20
2019-05-11T05:22:47.945Z,14.77
2019-05-11T05:25:16.754Z,13.73
2019-05-11T05:27:45.470Z,15.10
2019-05-11T05:30:14.388Z,13.50
2019-05-11T05:32:43.223Z,13.93
2019-05-11T05:35:12.087Z,11.20
2019-05-11T05:37:40.829Z,12.33
2019-05-11T05:40:10.092Z,12.17
2019-05-11T05:42:38.861Z,12.70
2019-05-11T05:45:07.706Z,12.77
2019-05-11T05:47:36.498Z,14.57
2019-05-11T05:50:06.868Z,16.73
2019-05-11T05:52:35.596Z,16.57
2019-05-11T05:55:06.092Z,19.73
2019-05-11T05:57:34.833Z,20.30
2019-05-11T06:00:03.852Z,22.70
2019-05-11T06:02:32.613Z,22.80
2019-05-11T06:05:01.397Z,21.23
2019-05-11T06:07:30.123Z,19.73
2019-05-11T06:09:58.894Z,17.33
2019-05-11T06:12:27.643Z,18.47
2019-05-11T06:14:56.390Z,16.47
2019-05-11T06:17:26.057Z,19.97
2019-05-11T06:19:54.870Z,19.97
2019-05-11T06:22:23.725Z,19.63
2019-05-11T06:24:52.509Z,19.57
2019-05-11T06:27:21.249Z,17.20
2019-05-11T06:29:50.006Z,18.17
2019-05-11T06:32:18.792Z,17.00
2019-05-11T06:34:47.526Z,17.57
2019-05-11T06:37:16.282Z,17.20
2019-05-11T06:39:45.089Z,16.13
2019-05-11T06:42:13.827Z,15.60
2019-05-11T06:44:42.641Z,14.33
2019-05-11T06:47:11.517Z,14.53
2019-05-11T06:49:40.296Z,15.20
2019-05-11T06:52:09.015Z,16.10
2019-05-11T06:54:37.821Z,18.43
2019-05-11T06:57:06.573Z,16.10
2019-05-11T06:59:35.320Z,16.07
2019-05-11T07:02:04.203Z,16.30
2019-05-11T07:04:32.936Z,18.20
2019-05-11T07:07:01.680Z,16.63
2019-05-11T07:09:30.539Z,14.67
2019-05-11T07:11:59.331Z,14.23
2019-05-11T07:14:28.127Z,13.27
2019-05-11T07:16:56.943Z,13.67
2019-05-11T07:19:26.591Z,14.53
2019-05-11T07:21:55.355Z,13.63
2019-05-11T07:24:24.144Z,14.27
2019-05-11T07:26:52.904Z,14.30
2019-05-11T07:29:21.734Z,12.93
2019-05-11T07:31:50.568Z,13.80
2019-05-11T07:34:19.258Z,13.50
2019-05-11T07:36:48.037Z,14.27
2019-05-11T07:39:18.670Z,12.17
2019-05-11T07:41:47.860Z,10.43
2019-05-11T07:44:18.960Z,9.80
2019-05-11T07:46:48.301Z,11.17
2019-05-11T07:49:17.936Z,11.17
2019-05-11T07:51:48.104Z,11.27
2019-05-11T07:54:18.690Z,12.07
2019-05-11T07:56:48.003Z,11.57
2019-05-11T07:59:18.346Z,10.67
2019-05-11T08:01:47.961Z,10.63
2019-05-11T08:04:18.325Z,10.00
2019-05-11T08:06:47.958Z,9.87
2019-05-11T08:09:18.644Z,10.57
2019-05-11T08:11:47.879Z,7.80
2019-05-11T08:14:18.265Z,8.03
2019-05-11T08:16:48.082Z,7.23
2019-05-11T08:19:18.514Z,7.73
2019-05-11T08:21:48.496Z,7.83
2019-05-11T08:24:18.060Z,6.13
2019-05-11T08:26:48.070Z,6.70
2019-05-11T08:29:18.535Z,6.93
2019-05-11T08:31:48.787Z,8.57
2019-05-11T08:34:18.091Z,7.33
2019-05-11T08:36:47.991Z,6.60
2019-05-11T08:39:18.251Z,8.10
2019-05-11T08:41:48.803Z,8.70
2019-05-11T08:44:18.277Z,8.17
2019-05-11T08:46:47.840Z,8.27
2019-05-11T08:49:18.913Z,8.43
2019-05-11T08:51:47.812Z,8.83
2019-05-11T08:54:18.353Z,8.50
2019-05-11T08:56:48.624Z,7.67
2019-05-11T08:59:18.651Z,7.90
2019-05-11T09:01:48.430Z,8.00
2019-05-11T09:04:18.258Z,7.80
2019-05-11T09:06:47.974Z,7.30
2019-05-11T09:09:18.128Z,8.10
2019-05-11T09:11:48.144Z,7.63
2019-05-11T09:14:18.894Z,7.07
2019-05-11T09:16:48.899Z,7.83
2019-05-11T09:19:17.971Z,7.77
2019-05-11T09:21:48.230Z,7.73
2019-05-11T09:24:18.925Z,7.27
2019-05-11T09:26:48.056Z,7.30
2019-05-11T09:29:18.004Z,7.17
2019-05-11T09:31:48.718Z,7.43
2019-05-11T09:34:18.104Z,6.90
2019-05-11T09:36:47.965Z,6.60
2019-05-11T09:39:17.711Z,5.53
2019-05-11T09:41:48.688Z,5.30
2019-05-11T09:44:18.198Z,5.03
2019-05-11T09:46:47.891Z,6.37
2019-05-11T09:49:18.523Z,6.10
2019-05-11T09:51:48.348Z,5.57
2019-05-11T09:54:18.269Z,4.50
2019-05-11T09:56:48.644Z,3.93
2019-05-11T09:59:18.025Z,4.70
2019-05-11T10:01:48.338Z,4.80
2019-05-11T10:04:18.106Z,4.40
2019-05-11T10:06:48.058Z,4.80
2019-05-11T10:09:18.624Z,5.50
2019-05-11T10:11:48.089Z,4.63
2019-05-11T10:14:18.781Z,4.87
2019-05-11T10:16:49.112Z,4.20
2019-05-11T10:19:18.045Z,4.50
2019-05-11T10:21:48.673Z,7.00
2019-05-11T10:24:17.787Z,4.27
2019-05-11T10:26:48.655Z,3.90
2019-05-11T10:29:18.320Z,3.63
2019-05-11T10:31:48.065Z,3.73
2019-05-11T10:34:17.945Z,2.77
2019-05-11T10:36:48.598Z,2.50
2019-05-11T10:39:18.658Z,3.30
2019-05-11T10:41:48.107Z,3.10
2019-05-11T10:44:18.834Z,2.67
2019-05-11T10:46:48.347Z,2.40
2019-05-11T10:49:18.479Z,2.47
2019-05-11T10:51:48.614Z,2.80
2019-05-11T10:54:18.729Z,3.37
2019-05-11T10:56:48.218Z,3.40
2019-05-11T10:59:18.791Z,2.87
2019-05-11T11:01:48.405Z,3.47
2019-05-11T11:04:18.359Z,3.43
2019-05-11T11:06:48.595Z,3.10
2019-05-11T11:09:17.848Z,3.57
2019-05-11T11:11:48.747Z,3.50
2019-05-11T11:14:18.070Z,3.93
2019-05-11T11:16:47.856Z,3.63
2019-05-11T11:19:18.398Z,3.63
2019-05-11T11:21:48.807Z,3.30
2019-05-11T11:24:18.191Z,3.73
2019-05-11T11:27:08.626Z,3.27
2019-05-11T11:29:38.807Z,3.60
2019-05-11T11:32:08.081Z,4.03
2019-05-11T11:34:38.401Z,3.90
2019-05-11T11:37:08.365Z,4.43
2019-05-11T11:39:38.846Z,3.57
2019-05-11T11:42:08.376Z,3.53
2019-05-11T11:44:37.998Z,4.10
2019-05-11T11:47:08.670Z,4.63
2019-05-11T11:49:38.329Z,3.47
2019-05-11T11:52:08.271Z,5.97
2019-05-11T11:54:38.688Z,3.73
2019-05-11T11:57:07.782Z,10.13
2019-05-11T11:59:38.613Z,5.37
2019-05-11T12:02:08.626Z,3.07
2019-05-11T12:04:38.817Z,2.87
2019-05-11T12:07:08.492Z,2.20
2019-05-11T12:09:37.776Z,2.13
2019-05-11T12:12:08.371Z,2.10
2019-05-11T12:14:38.505Z,2.20
2019-05-11T12:17:10.837Z,2.03
2019-05-11T12:19:38.249Z,2.03
2019-05-11T12:22:08.654Z,2.70
2019-05-11T12:24:37.598Z,2.30
2019-05-11T12:27:07.709Z,2.57
2019-05-11T12:29:38.526Z,1.90
2019-05-11T12:32:08.631Z,2.60
2019-05-11T12:34:37.540Z,2.97
2019-05-11T12:37:08.401Z,3.17
2019-05-11T12:39:38.562Z,3.00
2019-05-11T12:42:08.618Z,2.80
2019-05-11T12:44:38.730Z,2.37
2019-05-11T12:47:19.198Z,2.10
2019-05-11T12:49:39.037Z,2.33
2019-05-11T12:52:07.840Z,2.10
2019-05-11T12:54:38.404Z,1.93
2019-05-11T12:57:07.866Z,2.40
2019-05-11T12:59:38.124Z,2.30
2019-05-11T13:02:08.163Z,2.57
2019-05-11T13:04:38.493Z,1.80
2019-05-11T13:07:08.747Z,2.23
2019-05-11T13:09:38.047Z,2.47
2019-05-11T13:12:08.060Z,2.22
2019-05-11T13:14:38.135Z,1.98
2019-05-11T13:17:07.822Z,3.60
2019-05-11T13:19:38.637Z,2.77
2019-05-11T13:22:07.928Z,2.62
2019-05-11T13:24:38.499Z,2.42
2019-05-11T13:27:08.326Z,5.05
2019-05-11T13:29:37.876Z,3.65
2019-05-11T13:32:07.834Z,13.48
2019-05-11T13:34:38.687Z,4.40
2019-05-11T13:37:08.093Z,5.15
2019-05-11T13:39:37.815Z,2.50
2019-05-11T13:42:08.179Z,8.20
2019-05-11T13:44:38.495Z,8.78
2019-05-11T13:47:08.576Z,10.53
2019-05-11T13:49:37.899Z,7.75
2019-05-11T13:52:08.604Z,10.60
2019-05-11T13:54:37.685Z,3.80
2019-05-11T13:57:08.054Z,2.15
2019-05-11T13:59:38.520Z,2.30
2019-05-11T14:02:10.638Z,3.20
2019-05-11T14:04:38.687Z,2.25
2019-05-11T14:07:08.042Z,2.40
2019-05-11T14:09:38.045Z,2.35
2019-05-11T14:12:07.759Z,2.52
2019-05-11T14:14:37.748Z,12.43
2019-05-11T14:17:08.263Z,5.47
2019-05-11T14:19:38.441Z,2.08
2019-05-11T14:22:08.715Z,1.70
2019-05-11T14:24:37.797Z,2.00
2019-05-11T14:27:08.617Z,1.87
2019-05-11T14:29:38.567Z,6.37
2019-05-11T14:32:08.556Z,2.00
2019-05-11T14:34:38.685Z,19.55
2019-05-11T14:37:08.841Z,28.50
2019-05-11T14:39:38.361Z,4.33
2019-05-11T14:42:07.697Z,1.50
2019-05-11T14:44:37.676Z,1.60
2019-05-11T14:47:08.350Z,1.70
2019-05-11T14:49:37.915Z,2.05
2019-05-11T14:52:08.282Z,2.05
2019-05-11T14:54:38.254Z,2.60
2019-05-11T14:57:08.082Z,2.42
2019-05-11T14:59:37.775Z,2.52
2019-05-11T15:02:24.997Z,2.10
2019-05-11T15:04:53.783Z,2.22
2019-05-11T15:07:22.596Z,2.05
2019-05-11T15:09:51.284Z,2.60
2019-05-11T15:12:20.033Z,1.72
2019-05-11T15:14:48.774Z,2.15
2019-05-11T15:17:18.563Z,2.35
2019-05-11T15:19:48.856Z,2.00
2019-05-11T15:22:18.169Z,2.20
2019-05-11T15:24:48.453Z,2.33
2019-05-11T15:27:18.403Z,2.30
2019-05-11T15:29:47.842Z,2.00
2019-05-11T15:32:17.935Z,2.20
2019-05-11T15:34:48.776Z,1.92
2019-05-11T15:37:17.841Z,1.93
2019-05-11T15:39:48.389Z,1.62
2019-05-11T15:42:19.826Z,2.10
2019-05-11T15:44:48.406Z,1.73
2019-05-11T15:47:17.412Z,2.03
2019-05-11T15:49:48.066Z,2.47
2019-05-11T15:52:18.845Z,1.60
2019-05-11T15:54:47.044Z,2.30
2019-05-11T15:57:17.811Z,3.10
2019-05-11T15:59:48.183Z,2.50
2019-05-11T16:02:17.975Z,2.50
2019-05-11T16:04:49.336Z,2.67
2019-05-11T16:07:18.796Z,4.60
2019-05-11T16:09:48.663Z,5.33
2019-05-11T16:12:18.192Z,4.53
2019-05-11T16:14:48.523Z,3.70
2019-05-11T16:17:17.464Z,3.43
2019-05-11T16:19:48.895Z,3.13
2019-05-11T16:22:20.886Z,2.90
2019-05-11T16:24:48.517Z,2.80
2019-05-11T16:27:18.317Z,2.80
2019-05-11T16:29:47.931Z,2.93
2019-05-11T16:32:16.806Z,3.80
2019-05-11T16:34:45.648Z,3.00
2019-05-11T16:37:14.459Z,3.63
2019-05-11T16:39:46.297Z,3.77
2019-05-11T16:42:13.623Z,4.50
2019-05-11T16:44:42.361Z,3.93
2019-05-11T16:47:11.099Z,4.00
2019-05-11T16:49:39.874Z,3.50
2019-05-11T16:52:10.205Z,4.37
2019-05-11T16:54:39.094Z,5.20
2019-05-11T16:57:08.632Z,5.33
2019-05-11T16:59:39.657Z,5.00
2019-05-11T17:02:08.324Z,4.70
2019-05-11T17:04:39.665Z,4.23
2019-05-11T17:07:07.881Z,5.17
2019-05-11T17:09:37.850Z,5.03
2019-05-11T17:12:08.590Z,4.50
2019-05-11T17:14:39.057Z,5.00
2019-05-11T17:17:08.299Z,4.80
2019-05-11T17:19:43.717Z,4.27
2019-05-11T17:22:08.343Z,4.67
2019-05-11T17:24:37.895Z,4.03
2019-05-11T17:27:08.826Z,4.83
2019-05-11T17:29:38.102Z,4.33
2019-05-11T17:32:08.610Z,4.87
2019-05-11T17:34:38.103Z,5.10
2019-05-11T17:37:08.891Z,4.47
2019-05-11T17:39:38.604Z,4.10
2019-05-11T17:42:09.013Z,5.37
2019-05-11T17:44:37.998Z,6.27
2019-05-11T17:47:08.445Z,6.07
2019-05-11T17:49:38.331Z,7.33
2019-05-11T17:52:08.139Z,6.60
2019-05-11T17:54:38.355Z,5.90
2019-05-11T17:57:07.217Z,7.63
2019-05-11T17:59:38.513Z,10.30
2019-05-11T18:02:06.561Z,8.13
2019-05-11T18:04:35.337Z,6.77
2019-05-11T18:07:04.253Z,6.73
2019-05-11T18:09:33.009Z,8.47
2019-05-11T18:12:01.779Z,29.03
2019-05-11T18:14:30.599Z,33.33
2019-05-11T18:16:59.423Z,32.23
2019-05-11T18:19:28.193Z,26.40
2019-05-11T18:21:57.735Z,25.70
2019-05-11T18:24:28.549Z,26.53
2019-05-11T18:26:59.131Z,21.23
2019-05-11T18:29:28.831Z,20.47
2019-05-11T18:31:57.992Z,20.23
2019-05-11T18:34:26.777Z,18.73
2019-05-11T18:36:57.700Z,19.87
2019-05-11T18:39:25.968Z,21.03
2019-05-11T18:41:54.764Z,18.30
2019-05-11T18:44:23.512Z,16.60
2019-05-11T18:46:53.172Z,15.13
2019-05-11T18:49:22.033Z,12.00
2019-05-11T18:51:50.777Z,11.20
2019-05-11T18:54:19.595Z,11.57
2019-05-11T18:56:48.863Z,13.03
2019-05-11T18:59:19.602Z,11.10
2019-05-11T19:01:48.551Z,11.00
2019-05-11T19:04:18.404Z,11.00
2019-05-11T19:06:48.533Z,12.07
2019-05-11T19:09:18.059Z,12.07
2019-05-11T19:11:48.894Z,12.30
2019-05-11T19:14:17.304Z,12.27
2019-05-11T19:16:46.058Z,13.10
2019-05-11T19:19:14.864Z,14.63
2019-05-11T19:21:43.616Z,12.53
2019-05-11T19:24:12.362Z,12.50
2019-05-11T19:26:41.181Z,11.67
2019-05-11T19:29:09.858Z,11.23
2019-05-11T19:31:38.736Z,12.00
2019-05-11T19:34:07.569Z,11.30
2019-05-11T19:36:38.231Z,11.40
2019-05-11T19:39:08.904Z,11.37
2019-05-11T19:41:37.974Z,10.93
2019-05-11T19:44:08.621Z,11.47
2019-05-11T19:46:38.853Z,10.87
2019-05-11T19:49:08.830Z,10.97
2019-05-11T19:51:42.285Z,10.07
2019-05-11T19:54:08.518Z,10.90
2019-05-11T19:56:38.337Z,11.47
2019-05-11T19:59:08.546Z,10.83
2019-05-11T20:01:37.424Z,11.03
2019-05-11T20:04:08.115Z,10.97
2019-05-11T20:06:38.537Z,11.37
2019-05-11T20:09:08.759Z,13.07
2019-05-11T20:11:38.403Z,14.23
2019-05-11T20:14:08.091Z,14.40
2019-05-11T20:16:36.898Z,14.03
2019-05-11T20:19:05.699Z,13.23
2019-05-11T20:21:34.522Z,13.57
2019-05-11T20:24:03.326Z,12.53
2019-05-11T20:26:32.166Z,13.50
2019-05-11T20:29:00.985Z,13.37
2019-05-11T20:31:29.819Z,12.33
2019-05-11T20:33:58.602Z,11.67
2019-05-11T20:36:27.357Z,11.77
2019-05-11T20:38:56.122Z,11.70
2019-05-11T20:41:24.901Z,11.60
2019-05-11T20:43:53.744Z,10.97
2019-05-11T20:46:22.488Z,10.70
2019-05-11T20:48:51.280Z,9.53
2019-05-11T20:51:33.348Z,9.67
2019-05-11T20:53:51.469Z,10.83
2019-05-11T20:56:20.235Z,11.90
2019-05-11T20:58:55.843Z,11.43
2019-05-11T21:01:28.320Z,11.73
2019-05-11T21:03:58.349Z,12.00
2019-05-11T21:06:29.269Z,10.83
2019-05-11T21:08:57.105Z,10.53
2019-05-11T21:11:25.850Z,10.13
2019-05-11T21:13:54.609Z,10.33
2019-05-11T21:16:23.390Z,9.73
2019-05-11T21:18:52.293Z,9.43
2019-05-11T21:21:21.080Z,9.77
2019-05-11T21:23:49.856Z,9.07
2019-05-11T21:26:18.957Z,9.10
2019-05-11T21:28:48.690Z,7.80
2019-05-11T21:31:18.583Z,7.10
2019-05-11T21:33:47.483Z,6.50
2019-05-11T21:36:18.006Z,7.10
2019-05-11T21:38:48.202Z,6.03
2019-05-11T21:41:17.172Z,6.50
2019-05-11T21:43:48.189Z,5.77
2019-05-11T21:46:18.094Z,6.27
2019-05-11T21:48:47.779Z,6.33
2019-05-11T21:51:18.102Z,6.23
2019-05-11T21:53:48.646Z,5.80
2019-05-11T21:56:18.740Z,6.27
2019-05-11T21:58:47.684Z,6.00
2019-05-11T22:01:20.144Z,6.53
2019-05-11T22:03:47.893Z,6.70
2019-05-11T22:06:16.766Z,7.20
2019-05-11T22:08:45.557Z,6.43
2019-05-11T22:11:14.395Z,6.83
2019-05-11T22:13:43.156Z,6.40
2019-05-11T22:16:11.886Z,7.10
2019-05-11T22:18:40.660Z,6.80
2019-05-11T22:21:09.422Z,6.43
2019-05-11T22:23:38.603Z,6.80
2019-05-11T22:26:07.824Z,6.83
2019-05-11T22:28:38.837Z,7.23
2019-05-11T22:31:07.821Z,6.83
2019-05-11T22:33:38.534Z,7.00
2019-05-11T22:36:07.242Z,6.47
2019-05-11T22:38:38.582Z,7.53
2019-05-11T22:41:08.957Z,6.50
2019-05-11T22:43:37.872Z,7.13
2019-05-11T22:46:06.801Z,6.33
2019-05-11T22:48:35.530Z,6.47
2019-05-11T22:51:04.331Z,6.97
2019-05-11T22:53:43.828Z,6.17
2019-05-11T22:56:04.526Z,6.10
2019-05-11T22:58:33.257Z,5.93
2019-05-11T23:01:02.096Z,6.07
2019-05-11T23:03:30.837Z,5.83
2019-05-11T23:05:59.602Z,5.47
2019-05-11T23:08:28.415Z,5.73
2019-05-11T23:10:57.164Z,6.53
2019-05-11T23:13:27.797Z,7.33
2019-05-11T23:15:58.280Z,7.93
2019-05-11T23:18:28.636Z,8.00
2019-05-11T23:20:58.327Z,7.67
2019-05-11T23:23:28.260Z,8.03
2019-05-11T23:25:57.961Z,8.47
2019-05-11T23:28:28.820Z,8.13
2019-05-11T23:30:58.285Z,8.30
2019-05-11T23:33:27.951Z,8.50
2019-05-11T23:35:58.726Z,9.07
2019-05-11T23:38:28.212Z,8.73
2019-05-11T23:40:58.722Z,8.87
2019-05-11T23:43:29.758Z,8.87
2019-05-11T23:45:58.091Z,8.83
2019-05-11T23:48:27.936Z,9.10
2019-05-11T23:50:58.032Z,8.93
2019-05-11T23:53:28.264Z,8.87
2019-05-11T23:55:57.949Z,8.23
2019-05-11T23:58:28.442Z,8.40
